Time;durP1;ratioP1;P1;durP2;ratioP2;P2;SDS_P1;SDS_P2;PMS_P1;PMS_P2;Temp;Humidity;BMP_temperature;BMP_pressure;BME280_temperature;BME280_humidity;BME280_pressure;Samples;Min_cycle;Max_cycle;Signal;HPM_P1;HPM_P2
2021/01/15 00:01:05;;;;;;;33.28;16.85;;;-1.60;87.70;;;;;;5094481;28;20470;-68
2021/01/15 00:03:35;;;;;;;32.90;16.60;;;-1.60;87.60;;;;;;5093070;28;20394;-68
2021/01/15 00:06:05;;;;;;;31.17;15.73;;;-1.60;87.30;;;;;;5094157;28;20379;-67
2021/01/15 00:08:40;;;;;;;37.50;17.30;;;-1.70;87.30;;;;;;5094524;28;20027;-67
2021/01/15 00:11:14;;;;;;;35.78;15.35;;;-1.70;87.40;;;;;;5092878;28;20024;-68
2021/01/15 00:13:40;;;;;;;47.00;19.17;;;-1.70;87.20;;;;;;5094341;28;20051;-69
2021/01/15 00:16:06;;;;;;;51.22;21.48;;;-1.80;87.20;;;;;;5092548;28;20024;-68
2021/01/15 00:18:32;;;;;;;60.17;22.00;;;-1.80;87.40;;;;;;5094537;28;20031;-68
2021/01/15 00:20:57;;;;;;;64.00;26.20;;;-1.90;87.20;;;;;;5091641;28;20044;-67
2021/01/15 00:23:23;;;;;;;95.57;34.55;;;-1.90;87.20;;;;;;5094335;28;20031;-68
2021/01/15 00:25:49;;;;;;;98.47;34.67;;;-2.00;86.80;;;;;;5093899;28;20107;-68
2021/01/15 00:28:15;;;;;;;95.65;36.80;;;-2.10;86.70;;;;;;5094111;28;20513;-68
2021/01/15 00:30:40;;;;;;;86.18;35.65;;;-2.10;86.80;;;;;;5093908;28;20028;-68
2021/01/15 00:33:06;;;;;;;78.13;32.17;;;-2.20;86.60;;;;;;5093918;28;20032;-67
2021/01/15 00:35:32;;;;;;;94.20;33.60;;;-2.30;86.50;;;;;;5092964;28;20020;-67
2021/01/15 00:37:58;;;;;;;119.53;42.90;;;-2.40;86.60;;;;;;5092298;28;20052;-67
2021/01/15 00:40:24;;;;;;;90.55;35.45;;;-2.50;86.60;;;;;;5092658;28;20066;-67
2021/01/15 00:42:50;;;;;;;59.33;24.30;;;-2.50;86.80;;;;;;5093613;28;20054;-67
2021/01/15 00:45:18;;;;;;;52.38;21.52;;;-2.50;86.90;;;;;;5092387;28;20036;-67
2021/01/15 00:47:45;;;;;;;46.63;20.08;;;-2.50;86.80;;;;;;5093881;28;20085;-68
2021/01/15 00:50:12;;;;;;;44.53;20.38;;;-2.60;86.90;;;;;;5093134;28;20060;-68
2021/01/15 00:52:38;;;;;;;41.95;20.80;;;-2.60;87.10;;;;;;5093677;28;20019;-68
2021/01/15 00:55:06;;;;;;;44.35;20.42;;;-2.60;87.20;;;;;;5093466;28;20478;-68
2021/01/15 00:57:38;;;;;;;44.70;20.40;;;-2.60;87.10;;;;;;5093639;28;20049;-68
2021/01/15 01:00:07;;;;;;;41.65;18.67;;;-2.60;87.10;;;;;;5093551;28;20031;-68
2021/01/15 01:02:34;;;;;;;39.08;18.42;;;-2.70;87.00;;;;;;5071745;28;20462;-67
2021/01/15 01:05:00;;;;;;;49.78;21.00;;;-2.70;86.70;;;;;;5085253;28;20017;-68
2021/01/15 01:07:25;;;;;;;38.33;17.83;;;-2.80;86.60;;;;;;5093284;28;20028;-68
2021/01/15 01:09:51;;;;;;;50.10;21.95;;;-2.90;86.70;;;;;;5093493;28;20024;-67
2021/01/15 01:12:17;;;;;;;47.42;21.48;;;-2.90;86.80;;;;;;5093079;28;20404;-67
2021/01/15 01:14:42;;;;;;;43.47;20.48;;;-2.90;86.80;;;;;;5093231;28;20086;-67
2021/01/15 01:17:08;;;;;;;54.83;24.48;;;-2.90;86.90;;;;;;5093251;28;20036;-66
2021/01/15 01:19:34;;;;;;;39.67;18.60;;;-3.00;86.90;;;;;;5093152;28;20043;-67
2021/01/15 01:22:00;;;;;;;42.75;20.00;;;-3.00;86.90;;;;;;5091915;28;20056;-67
2021/01/15 01:24:26;;;;;;;42.13;19.98;;;-3.00;86.70;;;;;;5092871;28;20106;-67
2021/01/15 01:26:52;;;;;;;39.33;19.75;;;-3.00;86.80;;;;;;5091808;28;20027;-67
2021/01/15 01:29:17;;;;;;;35.70;19.15;;;-3.10;87.00;;;;;;5091823;28;20024;-67
2021/01/15 01:31:43;;;;;;;36.80;17.90;;;-3.00;87.30;;;;;;5095270;28;20016;-67
2021/01/15 01:34:09;;;;;;;38.58;19.20;;;-3.10;87.20;;;;;;5097470;28;20434;-67
2021/01/15 01:36:34;;;;;;;45.33;22.70;;;-3.00;87.60;;;;;;5095909;28;20024;-67
2021/01/15 01:39:00;;;;;;;43.92;21.33;;;-3.00;87.70;;;;;;5097705;28;20028;-67
2021/01/15 01:41:26;;;;;;;44.35;21.10;;;-3.00;87.40;;;;;;5096977;28;20094;-67
2021/01/15 01:43:51;;;;;;;39.17;20.27;;;-3.00;87.40;;;;;;5096806;28;20094;-67
2021/01/15 01:46:20;;;;;;;37.40;19.13;;;-3.00;87.20;;;;;;5097236;28;20055;-67
2021/01/15 01:48:46;;;;;;;39.03;18.85;;;-3.00;87.10;;;;;;5095903;28;20042;-67
2021/01/15 01:51:13;;;;;;;43.08;19.38;;;-3.00;87.10;;;;;;5096877;28;20028;-67
2021/01/15 01:53:39;;;;;;;39.50;17.08;;;-3.00;87.10;;;;;;5095640;28;20466;-66
2021/01/15 01:56:06;;;;;;;37.53;18.33;;;-3.00;87.10;;;;;;5095444;28;20026;-67
2021/01/15 01:58:33;;;;;;;37.35;17.77;;;-3.10;87.10;;;;;;5095605;28;20028;-67
2021/01/15 02:01:04;;;;;;;38.67;18.23;;;-3.10;87.10;;;;;;5095708;28;20028;-67
2021/01/15 02:03:30;;;;;;;40.53;18.88;;;-3.10;87.10;;;;;;5097048;28;20024;-67
2021/01/15 02:05:56;;;;;;;37.55;17.27;;;-3.10;87.20;;;;;;5094942;28;20124;-66
2021/01/15 02:08:23;;;;;;;36.03;18.27;;;-3.00;87.40;;;;;;5096995;28;20090;-67
2021/01/15 02:11:16;;;;;;;36.65;16.95;;;-3.00;87.30;;;;;;5096335;28;20024;-67
2021/01/15 02:14:03;;;;;;;38.28;19.05;;;-3.00;87.50;;;;;;5096787;28;20031;-67
2021/01/15 02:16:31;;;;;;;34.40;17.13;;;-2.90;87.50;;;;;;5084616;28;20101;-67
2021/01/15 02:19:22;;;;;;;43.25;19.08;;;-2.90;87.60;;;;;;5096176;28;20026;-67
2021/01/15 02:22:25;;;;;;;37.60;17.40;;;-2.80;87.90;;;;;;5095529;28;20062;-67
2021/01/15 02:25:03;;;;;;;39.03;18.60;;;-2.80;87.80;;;;;;5096309;28;20059;-66
2021/01/15 02:27:49;;;;;;;37.58;15.93;;;-2.80;88.10;;;;;;5096083;28;20107;-67
2021/01/15 02:30:35;;;;;;;34.03;16.02;;;-2.70;88.00;;;;;;5096246;28;20138;-67
2021/01/15 02:33:25;;;;;;;38.45;17.70;;;-2.60;87.90;;;;;;5087032;28;20044;-67
2021/01/15 02:36:08;;;;;;;35.42;18.08;;;-2.60;88.10;;;;;;5095988;28;20397;-67
2021/01/15 02:38:43;;;;;;;41.63;18.23;;;-2.50;88.10;;;;;;5094388;28;20020;-69
2021/01/15 02:41:23;;;;;;;36.53;17.48;;;-2.40;88.20;;;;;;5095946;28;20401;-67
2021/01/15 02:43:52;;;;;;;35.92;17.10;;;-2.40;88.30;;;;;;5094541;28;20093;-73
2021/01/15 02:46:25;;;;;;;36.90;18.38;;;-2.30;88.20;;;;;;5096112;28;20052;-67
2021/01/15 02:48:53;;;;;;;35.40;17.73;;;-2.30;88.20;;;;;;5096000;28;20028;-67
2021/01/15 02:51:20;;;;;;;33.40;17.70;;;-2.20;87.90;;;;;;5096264;28;20028;-67
2021/01/15 02:53:47;;;;;;;35.33;18.05;;;-2.20;88.00;;;;;;5096179;28;20035;-67
2021/01/15 02:56:14;;;;;;;40.22;20.05;;;-2.20;88.20;;;;;;5095527;28;20386;-67
2021/01/15 02:58:40;;;;;;;35.67;17.13;;;-2.10;88.10;;;;;;5095734;28;20397;-68
2021/01/15 03:01:06;;;;;;;52.30;20.23;;;-2.00;87.90;;;;;;5095727;28;20020;-67
2021/01/15 03:03:49;;;;;;;105.22;30.85;;;-2.00;87.80;;;;;;5096223;28;20024;-67
2021/01/15 03:06:36;;;;;;;130.38;35.65;;;-2.00;87.40;;;;;;5094297;28;20500;-67
2021/01/15 03:09:02;;;;;;;65.47;24.35;;;-2.00;87.40;;;;;;5095399;28;20078;-67
2021/01/15 03:11:31;;;;;;;59.88;22.58;;;-2.00;87.50;;;;;;5095760;28;20470;-67
2021/01/15 03:13:58;;;;;;;64.95;24.70;;;-2.00;87.40;;;;;;5095442;28;20393;-67
2021/01/15 03:16:25;;;;;;;59.13;22.25;;;-1.90;87.40;;;;;;5094085;28;20028;-67
2021/01/15 03:18:54;;;;;;;65.20;25.05;;;-1.90;87.30;;;;;;5094202;28;20028;-67
2021/01/15 03:21:20;;;;;;;55.42;22.48;;;-1.90;87.30;;;;;;5095119;28;20108;-67
2021/01/15 03:23:46;;;;;;;45.85;20.48;;;-1.90;87.50;;;;;;5095003;28;20451;-66
2021/01/15 03:26:13;;;;;;;40.03;20.10;;;-1.80;87.80;;;;;;5094816;28;20028;-66
2021/01/15 03:28:39;;;;;;;37.20;18.20;;;-1.80;87.70;;;;;;5095530;28;20020;-67
2021/01/15 03:31:05;;;;;;;38.20;18.58;;;-1.80;87.60;;;;;;5095215;28;20052;-67
2021/01/15 03:33:31;;;;;;;43.22;19.40;;;-1.70;87.40;;;;;;5094911;28;20055;-67
2021/01/15 03:35:56;;;;;;;40.88;18.15;;;-1.80;87.10;;;;;;5095006;28;20024;-67
2021/01/15 03:38:22;;;;;;;32.60;15.48;;;-1.80;86.90;;;;;;5094704;28;20016;-67
2021/01/15 03:40:48;;;;;;;40.65;19.02;;;-1.80;86.60;;;;;;5093896;28;20016;-66
2021/01/15 03:43:16;;;;;;;38.92;18.73;;;-1.90;86.30;;;;;;5094753;28;20028;-67
2021/01/15 03:45:43;;;;;;;36.47;17.67;;;-1.90;86.20;;;;;;5094998;28;20036;-66
2021/01/15 03:48:11;;;;;;;40.58;18.65;;;-2.00;86.30;;;;;;5094496;28;20032;-66
2021/01/15 03:50:37;;;;;;;38.08;17.90;;;-2.00;86.00;;;;;;5094278;28;20055;-66
2021/01/15 03:53:03;;;;;;;39.20;19.10;;;-2.10;86.10;;;;;;5093610;28;20474;-66
2021/01/15 03:55:29;;;;;;;40.28;20.67;;;-2.20;86.00;;;;;;5094162;28;20073;-66
2021/01/15 03:57:55;;;;;;;38.00;18.67;;;-2.20;86.10;;;;;;5093270;28;20419;-67
2021/01/15 04:00:21;;;;;;;46.83;22.35;;;-2.30;86.10;;;;;;5094403;28;20439;-66
2021/01/15 04:02:46;;;;;;;48.08;21.02;;;-2.30;86.30;;;;;;5094431;28;20356;-65
2021/01/15 04:05:14;;;;;;;41.42;20.17;;;-2.40;86.80;;;;;;5094328;28;20032;-66
2021/01/15 04:07:43;;;;;;;44.45;20.45;;;-2.40;86.80;;;;;;5093211;28;20539;-66
2021/01/15 04:10:11;;;;;;;41.83;20.65;;;-2.40;86.90;;;;;;5094540;28;20375;-67
2021/01/15 04:12:38;;;;;;;40.13;19.55;;;-2.40;86.90;;;;;;5094300;28;20021;-67
2021/01/15 04:15:06;;;;;;;53.22;23.40;;;-2.40;87.00;;;;;;5093050;28;20024;-67
2021/01/15 04:17:32;;;;;;;81.88;32.08;;;-2.40;87.00;;;;;;5094007;28;20020;-67
2021/01/15 04:19:57;;;;;;;68.10;27.45;;;-2.40;87.20;;;;;;5093879;28;20093;-67
2021/01/15 04:22:23;;;;;;;47.55;22.95;;;-2.30;87.40;;;;;;5093867;28;20423;-67
2021/01/15 04:24:49;;;;;;;45.28;20.00;;;-2.30;87.60;;;;;;5094130;28;20038;-67
2021/01/15 04:27:15;;;;;;;43.83;21.05;;;-2.30;87.40;;;;;;5094083;28;20028;-67
2021/01/15 04:29:40;;;;;;;46.60;20.90;;;-2.30;87.30;;;;;;5093934;28;20050;-67
2021/01/15 04:32:06;;;;;;;50.75;22.83;;;-2.30;87.00;;;;;;5093655;28;20024;-67
2021/01/15 04:34:32;;;;;;;51.95;23.90;;;-2.30;86.90;;;;;;5093821;28;20111;-67
2021/01/15 04:36:58;;;;;;;54.67;25.30;;;-2.30;87.10;;;;;;5092707;28;20024;-67
2021/01/15 04:39:24;;;;;;;58.95;24.13;;;-2.30;87.40;;;;;;5093859;28;20378;-67
2021/01/15 04:41:52;;;;;;;69.43;28.55;;;-2.30;87.60;;;;;;5093648;28;20031;-68
2021/01/15 04:44:18;;;;;;;54.95;22.63;;;-2.30;87.70;;;;;;5093642;28;20111;-67
2021/01/15 04:46:45;;;;;;;58.38;24.67;;;-2.20;87.80;;;;;;5093174;28;20071;-67
2021/01/15 04:49:18;;;;;;;49.53;21.35;;;-2.10;87.90;;;;;;5092282;28;20032;-68
2021/01/15 04:51:45;;;;;;;53.85;23.65;;;-2.10;87.90;;;;;;5093760;28;20024;-66
2021/01/15 04:54:11;;;;;;;50.10;24.48;;;-2.10;87.90;;;;;;5093536;28;20063;-66
2021/01/15 04:56:50;;;;;;;57.05;24.02;;;-2.10;87.80;;;;;;5093593;28;20027;-66
2021/01/15 04:59:18;;;;;;;55.22;21.48;;;-2.00;87.90;;;;;;5092168;28;20020;-68
2021/01/15 05:01:48;;;;;;;59.92;25.13;;;-2.00;87.80;;;;;;5093317;28;20462;-66
2021/01/15 05:04:18;;;;;;;43.17;20.10;;;-2.00;87.90;;;;;;5093171;28;20032;-67
2021/01/15 05:06:49;;;;;;;47.28;21.08;;;-2.00;87.90;;;;;;5092789;28;20066;-67
2021/01/15 05:09:20;;;;;;;47.97;22.08;;;-2.00;87.80;;;;;;5093065;28;20048;-67
2021/01/15 05:11:46;;;;;;;49.85;22.85;;;-2.00;87.80;;;;;;5092160;28;20490;-67
2021/01/15 05:14:14;;;;;;;51.28;23.23;;;-2.00;87.80;;;;;;5091487;28;20024;-68
2021/01/15 05:16:43;;;;;;;51.53;22.42;;;-2.00;88.00;;;;;;5093437;28;20044;-67
2021/01/15 05:19:09;;;;;;;52.25;22.95;;;-2.00;87.90;;;;;;5091645;28;20050;-67
2021/01/15 05:21:37;;;;;;;62.40;25.92;;;-2.00;87.90;;;;;;5093308;28;20032;-67
2021/01/15 05:24:04;;;;;;;69.68;27.83;;;-1.90;88.20;;;;;;5091255;28;20355;-65
2021/01/15 05:26:39;;;;;;;75.10;26.50;;;-1.90;88.70;;;;;;5091462;28;20024;-68
2021/01/15 05:29:06;;;;;;;73.40;29.50;;;-1.90;88.40;;;;;;5093119;28;20024;-69
2021/01/15 05:31:52;;;;;;;67.13;28.70;;;-1.90;88.50;;;;;;5092999;28;20072;-75
2021/01/15 05:34:18;;;;;;;67.13;30.73;;;-1.80;88.50;;;;;;5091662;28;20480;-67
2021/01/15 05:36:45;;;;;;;77.72;29.02;;;-1.90;88.80;;;;;;5091337;28;20024;-69
2021/01/15 05:39:22;;;;;;;79.78;32.53;;;-1.80;89.30;;;;;;5091962;28;20503;-67
2021/01/15 05:41:50;;;;;;;84.90;36.15;;;-1.70;89.30;;;;;;5093208;28;20059;-69
2021/01/15 05:44:33;;;;;;;130.13;48.78;;;-1.70;89.20;;;;;;5091767;28;20039;-67
2021/01/15 05:47:00;;;;;;;175.75;61.60;;;-1.70;89.20;;;;;;5092588;28;20039;-67
2021/01/15 05:49:27;;;;;;;230.25;66.28;;;-1.70;89.30;;;;;;5092390;28;20470;-67
2021/01/15 05:51:53;;;;;;;234.48;67.60;;;-1.60;89.20;;;;;;5090829;28;20024;-67
2021/01/15 05:54:30;;;;;;;269.65;59.10;;;-1.60;89.50;;;;;;5091270;28;20453;-67
2021/01/15 05:56:57;;;;;;;224.77;55.53;;;-1.50;90.00;;;;;;5092659;28;20028;-68
2021/01/15 05:59:22;;;;;;;193.20;52.10;;;-1.40;89.80;;;;;;5092615;28;20098;-68
2021/01/15 06:01:56;;;;;;;157.13;43.78;;;-1.40;89.50;;;;;;5091371;28;20122;-68
2021/01/15 06:04:25;;;;;;;127.30;41.53;;;-1.40;89.40;;;;;;5091276;28;20424;-67
2021/01/15 06:06:51;;;;;;;114.53;37.80;;;-1.30;89.30;;;;;;5092722;28;20040;-67
2021/01/15 06:09:21;;;;;;;82.93;33.17;;;-1.30;89.30;;;;;;5092308;28;20078;-67
2021/01/15 06:11:49;;;;;;;70.47;31.05;;;-1.30;89.20;;;;;;5090955;28;20024;-67
2021/01/15 06:14:21;;;;;;;58.10;26.38;;;-1.20;88.90;;;;;;5092316;28;20458;-67
2021/01/15 06:16:48;;;;;;;52.20;25.90;;;-1.20;88.90;;;;;;5093178;28;20028;-68
2021/01/15 06:19:14;;;;;;;65.43;35.05;;;-1.20;88.60;;;;;;5094114;28;20038;-68
2021/01/15 06:21:51;;;;;;;54.00;27.00;;;-1.30;88.20;;;;;;5096492;28;20020;-67
2021/01/15 06:24:22;;;;;;;44.85;21.73;;;-1.40;87.20;;;;;;5094352;28;21883;-68
2021/01/15 06:27:04;;;;;;;45.17;20.13;;;-1.60;87.20;;;;;;5095001;28;20020;-68
2021/01/15 06:29:44;;;;;;;36.90;17.20;;;-1.70;87.10;;;;;;5096183;28;20024;-67
2021/01/15 06:32:10;;;;;;;50.80;19.00;;;-1.80;86.70;;;;;;5096149;28;20036;-67
2021/01/15 06:34:48;;;;;;;37.92;16.50;;;-2.00;86.40;;;;;;5095879;28;20028;-68
2021/01/15 06:37:19;;;;;;;32.88;16.60;;;-2.10;86.60;;;;;;5093392;28;20020;-69
2021/01/15 06:40:26;;;;;;;32.58;15.32;;;-2.20;86.60;;;;;;5095803;28;20031;-67
2021/01/15 06:42:51;;;;;;;34.13;15.85;;;-2.30;87.20;;;;;;5095721;28;20036;-66
2021/01/15 06:45:17;;;;;;;37.67;17.45;;;-2.30;87.40;;;;;;5096130;28;20035;-67
2021/01/15 06:47:45;;;;;;;40.92;17.35;;;-2.30;87.40;;;;;;5094083;28;20040;-66
2021/01/15 06:50:17;;;;;;;33.92;15.93;;;-2.30;87.80;;;;;;5093931;28;20020;-67
2021/01/15 06:52:50;;;;;;;36.92;16.85;;;-2.30;87.80;;;;;;5094591;28;20031;-68
2021/01/15 06:55:20;;;;;;;37.83;15.68;;;-2.30;87.30;;;;;;5095531;28;20025;-67
2021/01/15 06:57:48;;;;;;;39.95;18.67;;;-2.30;87.30;;;;;;5094516;28;20027;-67
2021/01/15 07:00:20;;;;;;;38.47;18.02;;;-2.30;87.30;;;;;;5095323;28;20073;-68
2021/01/15 07:03:18;;;;;;;33.80;17.55;;;-2.30;87.40;;;;;;5095895;28;20031;-67
2021/01/15 07:05:46;;;;;;;33.05;15.95;;;-2.30;87.50;;;;;;5095301;28;20028;-67
2021/01/15 07:08:13;;;;;;;36.60;17.42;;;-2.20;87.80;;;;;;5093836;28;20036;-67
2021/01/15 07:10:40;;;;;;;37.85;17.63;;;-2.20;87.60;;;;;;5095105;28;20077;-68
2021/01/15 07:13:10;;;;;;;37.40;17.33;;;-2.20;87.40;;;;;;5095555;28;20097;-67
2021/01/15 07:15:42;;;;;;;35.95;16.60;;;-2.20;87.20;;;;;;5094269;28;20024;-68
2021/01/15 07:18:32;;;;;;;42.28;16.75;;;-2.20;87.40;;;;;;5093938;28;20020;-67
2021/01/15 07:21:05;;;;;;;30.80;15.00;;;-2.10;87.40;;;;;;5095321;28;20048;-68
2021/01/15 07:23:53;;;;;;;30.85;14.13;;;-2.10;87.30;;;;;;5095243;28;20032;-68
2021/01/15 07:26:20;;;;;;;31.60;15.35;;;-2.10;87.50;;;;;;5095139;28;20020;-67
2021/01/15 07:28:47;;;;;;;31.80;14.85;;;-2.10;86.80;;;;;;5093295;28;20025;-67
2021/01/15 07:31:25;;;;;;;32.50;15.13;;;-2.10;86.80;;;;;;5094849;28;20016;-67
2021/01/15 07:34:02;;;;;;;33.75;16.90;;;-2.10;86.60;;;;;;5094794;28;20032;-67
2021/01/15 07:36:35;;;;;;;32.28;15.85;;;-2.10;86.80;;;;;;5095023;28;20024;-67
2021/01/15 07:39:12;;;;;;;32.80;15.73;;;-2.10;86.60;;;;;;5093708;28;20123;-68
2021/01/15 07:41:46;;;;;;;31.42;15.32;;;-2.00;86.80;;;;;;5093413;28;20020;-67
2021/01/15 07:44:24;;;;;;;31.48;15.60;;;-2.00;86.50;;;;;;5093122;28;20039;-67
2021/01/15 07:46:52;;;;;;;33.33;15.95;;;-2.00;85.90;;;;;;5078702;28;20034;-68
2021/01/15 07:49:18;;;;;;;33.03;16.73;;;-2.00;86.00;;;;;;5094699;28;20135;-67
2021/01/15 07:52:04;;;;;;;31.90;15.32;;;-2.00;85.70;;;;;;5094405;28;20389;-67
2021/01/15 07:54:50;;;;;;;28.10;15.02;;;-2.00;85.80;;;;;;5094075;28;20024;-67
2021/01/15 07:57:17;;;;;;;34.70;15.35;;;-1.90;85.70;;;;;;5094529;28;20028;-67
2021/01/15 07:59:43;;;;;;;30.15;14.60;;;-1.90;86.40;;;;;;5094510;28;20024;-67
2021/01/15 08:02:09;;;;;;;34.13;15.15;;;-1.90;86.00;;;;;;5092651;28;20028;-67
2021/01/15 08:04:35;;;;;;;32.88;15.95;;;-1.80;85.50;;;;;;5094067;28;20519;-67
2021/01/15 08:07:20;;;;;;;33.97;16.08;;;-1.80;85.50;;;;;;5093896;28;20040;-67
2021/01/15 08:09:45;;;;;;;32.75;16.35;;;-1.80;85.70;;;;;;5092946;28;20020;-67
2021/01/15 08:12:11;;;;;;;35.25;16.27;;;-1.80;85.10;;;;;;5092485;28;20027;-68
2021/01/15 08:14:38;;;;;;;34.13;16.63;;;-1.80;84.50;;;;;;5094190;28;20032;-68
2021/01/15 08:17:06;;;;;;;36.10;16.70;;;-1.90;84.40;;;;;;5094159;28;20504;-67
2021/01/15 08:19:36;;;;;;;35.78;17.83;;;-1.90;84.40;;;;;;5093560;28;20139;-68
2021/01/15 08:22:02;;;;;;;33.75;16.20;;;-1.80;85.00;;;;;;5094208;28;20378;-67
2021/01/15 08:24:28;;;;;;;34.13;16.15;;;-1.80;84.80;;;;;;5092172;28;20059;-67
2021/01/15 08:26:57;;;;;;;32.55;16.80;;;-1.80;84.50;;;;;;5092409;28;20052;-67
2021/01/15 08:29:30;;;;;;;31.80;16.33;;;-1.90;83.60;;;;;;5092344;28;20020;-68
2021/01/15 08:31:58;;;;;;;32.08;16.60;;;-1.90;84.10;;;;;;5092144;28;20028;-68
2021/01/15 08:34:30;;;;;;;35.20;16.42;;;-1.80;84.60;;;;;;5093703;28;20420;-67
2021/01/15 08:37:01;;;;;;;33.30;16.65;;;-1.70;84.70;;;;;;5093931;28;20051;-67
2021/01/15 08:39:26;;;;;;;36.80;16.85;;;-1.70;84.60;;;;;;5093713;28;20442;-66
2021/01/15 08:41:59;;;;;;;34.63;16.98;;;-1.70;84.20;;;;;;5092816;28;20069;-67
2021/01/15 08:44:34;;;;;;;34.65;17.38;;;-1.70;83.70;;;;;;5093363;28;20024;-67
2021/01/15 08:47:03;;;;;;;39.92;17.45;;;-1.70;83.60;;;;;;5092725;28;20043;-67
2021/01/15 08:49:28;;;;;;;35.20;16.63;;;-1.70;83.90;;;;;;5092292;28;20541;-67
2021/01/15 08:51:58;;;;;;;32.25;16.55;;;-1.70;83.50;;;;;;5093414;28;20108;-67
2021/01/15 08:54:25;;;;;;;32.30;16.27;;;-1.80;83.10;;;;;;5093753;28;20024;-67
2021/01/15 08:56:52;;;;;;;40.33;17.55;;;-1.80;83.20;;;;;;5093257;28;20526;-67
2021/01/15 08:59:32;;;;;;;32.83;16.08;;;-1.80;83.30;;;;;;5093585;28;20465;-67
2021/01/15 09:02:00;;;;;;;31.52;16.50;;;-1.70;83.80;;;;;;5093234;28;20051;-66
2021/01/15 09:04:35;;;;;;;32.38;15.70;;;-1.60;83.60;;;;;;5093480;28;20028;-66
2021/01/15 09:07:06;;;;;;;32.88;16.40;;;-1.60;83.30;;;;;;5093217;28;20157;-66
2021/01/15 09:09:35;;;;;;;29.27;15.20;;;-1.50;83.50;;;;;;5093380;28;20377;-66
2021/01/15 09:12:10;;;;;;;30.23;14.45;;;-1.40;83.50;;;;;;5091834;28;20075;-66
2021/01/15 09:14:37;;;;;;;26.80;13.73;;;-1.50;82.10;;;;;;5080281;28;20150;-66
2021/01/15 09:17:04;;;;;;;28.80;13.85;;;-1.50;82.10;;;;;;5092126;28;20070;-67
2021/01/15 09:19:30;;;;;;;26.23;14.25;;;-1.60;81.90;;;;;;5092716;28;20032;-67
2021/01/15 09:22:01;;;;;;;26.85;14.15;;;-1.60;81.90;;;;;;5092802;28;20482;-67
2021/01/15 09:24:32;;;;;;;29.42;14.50;;;-1.60;82.00;;;;;;5091613;28;20034;-67
2021/01/15 09:27:06;;;;;;;23.65;13.27;;;-1.60;81.60;;;;;;5093296;28;20420;-68
2021/01/15 09:29:34;;;;;;;27.13;13.20;;;-1.60;81.20;;;;;;5091695;28;20382;-69
2021/01/15 09:32:01;;;;;;;26.38;13.90;;;-1.60;81.40;;;;;;5090848;28;20024;-69
2021/01/15 09:34:27;;;;;;;28.23;13.98;;;-1.60;81.60;;;;;;5091649;28;20051;-68
2021/01/15 09:36:54;;;;;;;28.35;14.40;;;-1.50;81.40;;;;;;5092158;28;20031;-67
2021/01/15 09:39:22;;;;;;;28.65;15.70;;;-1.50;81.20;;;;;;5092867;28;20608;-67
2021/01/15 09:41:53;;;;;;;25.50;13.52;;;-1.60;80.60;;;;;;5091613;28;20042;-68
2021/01/15 09:44:20;;;;;;;29.58;15.05;;;-1.70;80.20;;;;;;5092523;28;20028;-67
2021/01/15 09:46:48;;;;;;;28.25;15.00;;;-1.80;80.10;;;;;;5092377;28;20417;-67
2021/01/15 09:49:14;;;;;;;26.67;14.55;;;-1.90;80.00;;;;;;5091416;28;20036;-68
2021/01/15 09:51:40;;;;;;;30.35;15.38;;;-1.90;80.40;;;;;;5091685;28;20528;-68
2021/01/15 09:54:06;;;;;;;28.77;15.25;;;-1.90;81.00;;;;;;5096734;28;20375;-68
2021/01/15 09:56:34;;;;;;;32.03;17.10;;;-1.80;81.20;;;;;;5096790;28;20023;-68
2021/01/15 09:59:02;;;;;;;29.25;15.95;;;-1.70;81.40;;;;;;5096452;28;20044;-67
2021/01/15 10:01:29;;;;;;;27.67;14.68;;;-1.60;81.50;;;;;;5095295;28;20029;-67
2021/01/15 10:03:58;;;;;;;29.33;15.85;;;-1.50;81.40;;;;;;5094941;28;20032;-68
2021/01/15 10:06:27;;;;;;;32.38;16.38;;;-1.50;81.10;;;;;;5095241;28;20118;-67
2021/01/15 10:08:53;;;;;;;28.23;15.00;;;-1.40;81.10;;;;;;5096419;28;20055;-67
2021/01/15 10:11:27;;;;;;;29.13;14.57;;;-1.30;81.30;;;;;;5095549;28;20052;-67
2021/01/15 10:13:54;;;;;;;29.23;13.05;;;-1.20;81.00;;;;;;5096088;28;20032;-68
2021/01/15 10:16:21;;;;;;;28.70;13.98;;;-1.20;80.30;;;;;;5096727;28;20051;-67
2021/01/15 10:18:46;;;;;;;26.30;13.18;;;-1.10;80.40;;;;;;5096610;28;20031;-67
2021/01/15 10:21:12;;;;;;;28.23;14.43;;;-1.00;80.80;;;;;;5094480;28;20052;-67
2021/01/15 10:23:39;;;;;;;29.58;14.25;;;-0.80;80.50;;;;;;5094828;28;20040;-67
2021/01/15 10:26:05;;;;;;;24.13;13.60;;;-0.50;81.00;;;;;;5094635;28;20385;-68
2021/01/15 10:28:31;;;;;;;26.45;13.43;;;-0.20;80.20;;;;;;5096112;28;20424;-69
2021/01/15 10:30:57;;;;;;;23.30;12.30;;;-0.10;79.10;;;;;;5096173;28;20462;-68
2021/01/15 10:33:24;;;;;;;21.42;11.70;;;0.10;78.60;;;;;;5095879;28;20086;-68
2021/01/15 10:35:50;;;;;;;23.63;12.00;;;0.20;77.70;;;;;;5095841;28;20520;-68
2021/01/15 10:38:16;;;;;;;22.02;10.93;;;0.40;77.90;;;;;;5094455;28;20027;-68
2021/01/15 10:40:45;;;;;;;22.58;12.20;;;0.40;76.50;;;;;;5096191;28;20090;-68
2021/01/15 10:43:11;;;;;;;21.45;11.07;;;0.30;75.50;;;;;;5095725;28;20409;-68
2021/01/15 10:45:40;;;;;;;18.90;10.38;;;0.20;74.80;;;;;;5095959;28;20042;-68
2021/01/15 10:48:07;;;;;;;21.27;11.13;;;0.00;74.90;;;;;;5095374;28;20493;-68
2021/01/15 10:50:37;;;;;;;22.08;11.85;;;-0.20;74.70;;;;;;5094389;28;20031;-68
2021/01/15 10:53:03;;;;;;;18.35;10.90;;;-0.20;75.20;;;;;;5095688;28;20473;-68
2021/01/15 10:55:29;;;;;;;20.17;10.65;;;-0.30;75.10;;;;;;5095466;28;20047;-67
2021/01/15 10:57:54;;;;;;;22.98;11.15;;;-0.50;74.60;;;;;;5093767;28;20028;-68
2021/01/15 11:00:20;;;;;;;21.42;11.73;;;-0.70;74.70;;;;;;5095753;28;20059;-69
2021/01/15 11:02:47;;;;;;;22.73;11.98;;;-0.80;75.40;;;;;;5094441;28;20114;-67
2021/01/15 11:05:14;;;;;;;24.13;11.90;;;-0.70;76.40;;;;;;5094757;28;20039;-67
2021/01/15 11:07:41;;;;;;;24.48;13.23;;;-0.50;77.10;;;;;;5095370;28;20039;-67
2021/01/15 11:10:07;;;;;;;19.85;11.85;;;-0.30;77.20;;;;;;5093895;28;20028;-68
2021/01/15 11:12:33;;;;;;;25.23;12.82;;;-0.30;76.00;;;;;;5095002;28;20030;-67
2021/01/15 11:14:59;;;;;;;25.30;13.05;;;-0.40;74.60;;;;;;5094298;28;20107;-67
2021/01/15 11:17:25;;;;;;;27.30;13.18;;;-0.70;73.30;;;;;;5094934;28;20488;-67
2021/01/15 11:19:50;;;;;;;26.60;14.00;;;-0.90;73.60;;;;;;5093819;28;20044;-67
2021/01/15 11:22:16;;;;;;;22.92;11.85;;;-1.00;74.60;;;;;;5093975;28;20081;-68
2021/01/15 11:24:42;;;;;;;21.88;12.02;;;-1.00;74.90;;;;;;5094862;28;20113;-68
2021/01/15 11:27:08;;;;;;;25.08;13.82;;;-0.80;75.40;;;;;;5093759;28;20032;-68
2021/01/15 11:29:33;;;;;;;25.13;12.57;;;-0.70;75.70;;;;;;5095157;28;20347;-68
2021/01/15 11:31:59;;;;;;;20.92;11.35;;;-0.40;75.80;;;;;;5095391;28;20055;-68
2021/01/15 11:34:25;;;;;;;19.23;10.35;;;-0.40;74.40;;;;;;5095027;28;20028;-68
2021/01/15 11:36:51;;;;;;;22.83;11.07;;;-0.20;74.50;;;;;;5095079;28;20504;-68
2021/01/15 11:39:17;;;;;;;20.90;11.40;;;-0.10;73.60;;;;;;5093677;28;20020;-69
2021/01/15 11:41:43;;;;;;;19.15;11.00;;;-0.10;72.20;;;;;;5095042;28;20020;-68
2021/01/15 11:44:10;;;;;;;21.63;11.63;;;-0.10;72.30;;;;;;5093582;28;20188;-68
2021/01/15 11:46:37;;;;;;;26.33;11.82;;;0.00;72.30;;;;;;5094518;28;20361;-68
2021/01/15 11:49:03;;;;;;;22.05;11.50;;;0.20;72.30;;;;;;5093566;28;20028;-68
2021/01/15 11:51:29;;;;;;;18.38;9.52;;;0.30;71.90;;;;;;5093413;28;20076;-68
2021/01/15 11:53:55;;;;;;;21.63;10.57;;;0.50;71.60;;;;;;5092937;28;20043;-69
2021/01/15 11:56:21;;;;;;;18.65;10.45;;;0.50;69.70;;;;;;5094835;28;20024;-68
2021/01/15 11:58:48;;;;;;;19.75;10.45;;;0.30;68.20;;;;;;5093467;28;20058;-68
2021/01/15 12:01:16;;;;;;;21.98;11.00;;;-0.10;67.40;;;;;;5093456;28;20024;-68
2021/01/15 12:03:41;;;;;;;19.35;11.02;;;-0.40;67.50;;;;;;5093124;28;20126;-69
2021/01/15 12:06:07;;;;;;;19.00;9.98;;;-0.60;67.00;;;;;;5094429;28;20506;-68
2021/01/15 12:08:33;;;;;;;20.85;11.38;;;-1.00;67.00;;;;;;5093097;28;20028;-68
2021/01/15 12:11:02;;;;;;;17.77;10.23;;;-1.30;66.60;;;;;;5092804;28;20035;-68
2021/01/15 12:13:29;;;;;;;17.70;9.90;;;-1.60;67.00;;;;;;5093368;28;20390;-67
2021/01/15 12:15:56;;;;;;;16.48;9.02;;;-1.80;66.90;;;;;;5092602;28;20020;-68
2021/01/15 12:18:27;;;;;;;19.80;10.60;;;-2.00;66.60;;;;;;5094170;28;20034;-70
2021/01/15 12:20:53;;;;;;;19.27;10.98;;;-2.20;67.40;;;;;;5094455;28;20129;-67
2021/01/15 12:23:19;;;;;;;18.52;10.23;;;-2.30;67.10;;;;;;5093855;28;20020;-68
2021/01/15 12:25:45;;;;;;;22.25;12.15;;;-2.50;67.30;;;;;;5092878;28;20126;-68
2021/01/15 12:28:16;;;;;;;22.05;12.02;;;-2.50;67.80;;;;;;5093885;28;20032;-68
2021/01/15 12:30:43;;;;;;;21.58;10.68;;;-2.50;68.10;;;;;;5093943;28;20024;-67
2021/01/15 12:33:14;;;;;;;19.20;10.13;;;-2.50;67.60;;;;;;5092654;28;20035;-67
2021/01/15 12:35:41;;;;;;;20.58;10.48;;;-2.60;67.50;;;;;;5093700;28;20378;-69
2021/01/15 12:38:11;;;;;;;22.92;11.98;;;-2.60;67.90;;;;;;5093622;28;20099;-68